Time;durP1;ratioP1;P1;durP2;ratioP2;P2;SDS_P1;SDS_P2;PMS_P1;PMS_P2;Temp;Humidity;BMP_temperature;BMP_pressure;BME280_temperature;BME280_humidity;BME280_pressure;Samples;Min_cycle;Max_cycle;Signal;HPM_P1;HPM_P2
2021/06/15 00:01:10;;;;;;;46.83;27.20;;;17.70;99.90;;;;;;5082677;28;20176;-64
2021/06/15 00:03:38;;;;;;;45.03;29.00;;;17.70;99.90;;;;;;5080941;28;20190;-64
2021/06/15 00:06:06;;;;;;;43.10;27.63;;;17.60;99.90;;;;;;5081745;28;20230;-65
2021/06/15 00:08:35;;;;;;;51.20;29.90;;;17.60;99.90;;;;;;5083418;28;20387;-65
2021/06/15 00:11:04;;;;;;;43.00;27.20;;;17.50;99.90;;;;;;5083396;28;20192;-65
2021/06/15 00:13:32;;;;;;;46.53;28.03;;;17.50;99.90;;;;;;5077075;28;20242;-65
2021/06/15 00:16:02;;;;;;;44.60;28.60;;;17.50;99.90;;;;;;5082643;28;20257;-65
2021/06/15 00:18:31;;;;;;;40.93;27.33;;;17.50;99.90;;;;;;5078191;28;20185;-65
2021/06/15 00:20:59;;;;;;;45.60;29.70;;;17.40;99.90;;;;;;5064841;28;20222;-65
2021/06/15 00:23:28;;;;;;;49.93;30.80;;;17.40;99.90;;;;;;5083015;28;20575;-66
2021/06/15 00:25:56;;;;;;;55.37;33.23;;;17.40;99.90;;;;;;5084052;28;20253;-64
2021/06/15 00:28:25;;;;;;;49.43;30.33;;;17.40;99.90;;;;;;5077735;28;20188;-65
2021/06/15 00:30:53;;;;;;;55.00;31.50;;;17.30;99.90;;;;;;5080585;28;20199;-65
2021/06/15 00:33:24;;;;;;;48.73;30.77;;;17.30;99.90;;;;;;5077606;28;20196;-65
2021/06/15 00:35:52;;;;;;;46.43;29.40;;;17.30;99.90;;;;;;5086839;28;20223;-65
2021/06/15 00:38:21;;;;;;;49.73;31.17;;;17.20;99.90;;;;;;5082968;28;20176;-64
2021/06/15 00:40:49;;;;;;;49.37;29.93;;;17.10;99.90;;;;;;5085477;28;20193;-65
2021/06/15 00:43:18;;;;;;;50.93;31.17;;;17.10;99.90;;;;;;5080216;28;20301;-65
2021/06/15 00:45:46;;;;;;;48.80;32.03;;;17.00;99.90;;;;;;5073276;28;20189;-65
2021/06/15 00:48:24;;;;;;;49.50;30.80;;;17.00;99.90;;;;;;5076499;28;20177;-65
2021/06/15 00:50:53;;;;;;;56.37;33.40;;;16.90;99.90;;;;;;5083035;28;20202;-65
2021/06/15 00:53:22;;;;;;;50.53;32.80;;;16.90;99.90;;;;;;5081302;28;20430;-65
2021/06/15 00:55:52;;;;;;;53.97;32.90;;;16.80;99.90;;;;;;5084175;28;20266;-65
2021/06/15 00:58:24;;;;;;;57.87;37.80;;;16.80;99.90;;;;;;5078487;28;20223;-65
2021/06/15 01:00:53;;;;;;;65.90;39.70;;;16.80;99.90;;;;;;5079761;28;20219;-64
2021/06/15 01:03:25;;;;;;;70.20;40.30;;;16.80;99.90;;;;;;5080316;28;20251;-65
2021/06/15 01:05:56;;;;;;;67.70;41.17;;;16.80;99.90;;;;;;5081966;28;20361;-65
2021/06/15 01:08:37;;;;;;;64.03;39.90;;;16.80;99.90;;;;;;5075724;28;20195;-65
2021/06/15 01:11:14;;;;;;;68.20;39.70;;;16.80;99.90;;;;;;5081586;28;20234;-65
2021/06/15 01:13:52;;;;;;;75.67;44.10;;;16.70;99.90;;;;;;5077830;28;20188;-65
2021/06/15 01:16:27;;;;;;;75.87;44.90;;;16.70;99.90;;;;;;5082124;28;20204;-65
2021/06/15 01:19:09;;;;;;;83.90;46.87;;;16.70;99.90;;;;;;5079886;28;20243;-65
2021/06/15 01:21:53;;;;;;;79.73;46.70;;;16.70;99.90;;;;;;5083078;28;20248;-65
2021/06/15 01:24:33;;;;;;;79.07;46.17;;;16.60;99.90;;;;;;5081220;28;20351;-65
2021/06/15 01:27:28;;;;;;;84.07;48.07;;;16.60;99.90;;;;;;5080452;28;20180;-65
2021/06/15 01:29:58;;;;;;;83.80;47.80;;;16.60;99.90;;;;;;5071768;28;20389;-65
2021/06/15 01:32:30;;;;;;;89.20;50.80;;;16.60;99.90;;;;;;5082582;28;20242;-65
2021/06/15 01:35:00;;;;;;;83.23;51.13;;;16.50;99.90;;;;;;5082079;28;20176;-65
2021/06/15 01:37:32;;;;;;;95.03;53.37;;;16.50;99.90;;;;;;5077778;28;20185;-65
2021/06/15 01:40:06;;;;;;;102.73;56.43;;;16.50;99.90;;;;;;5082116;28;20191;-65
2021/06/15 01:42:39;;;;;;;97.33;56.30;;;16.50;99.90;;;;;;5071642;28;20234;-65
2021/06/15 01:45:11;;;;;;;109.77;60.33;;;16.40;99.90;;;;;;5079973;28;20234;-65
2021/06/15 01:47:44;;;;;;;102.17;60.03;;;16.40;99.90;;;;;;5083592;28;20328;-65
2021/06/15 01:50:15;;;;;;;104.67;59.03;;;16.50;99.90;;;;;;5073839;28;20232;-65
2021/06/15 01:52:44;;;;;;;105.67;59.67;;;16.50;99.90;;;;;;5063788;28;20210;-65
2021/06/15 01:55:13;;;;;;;105.43;58.67;;;16.50;99.90;;;;;;5075793;28;20667;-64
2021/06/15 01:57:44;;;;;;;101.37;58.27;;;16.50;99.90;;;;;;5081796;28;20239;-64
2021/06/15 02:00:14;;;;;;;100.00;58.17;;;16.50;99.90;;;;;;5080086;28;20748;-65
2021/06/15 02:02:44;;;;;;;103.63;61.10;;;16.50;99.90;;;;;;5081761;28;20724;-65
2021/06/15 02:05:14;;;;;;;96.00;54.77;;;16.40;99.90;;;;;;5083260;28;20272;-65
2021/06/15 02:07:46;;;;;;;102.13;57.17;;;16.40;99.90;;;;;;5087456;28;20184;-65
2021/06/15 02:10:18;;;;;;;100.13;57.80;;;16.30;99.90;;;;;;5083216;28;20189;-65
2021/06/15 02:12:55;;;;;;;119.63;65.63;;;16.30;99.90;;;;;;5081596;28;20176;-65
2021/06/15 02:15:27;;;;;;;115.17;62.07;;;16.20;99.90;;;;;;5083425;28;20314;-65
2021/06/15 02:18:00;;;;;;;115.20;63.90;;;16.20;99.90;;;;;;5086959;28;20188;-64
2021/06/15 02:20:43;;;;;;;106.03;59.57;;;16.10;99.90;;;;;;5083924;28;20172;-63
2021/06/15 02:23:18;;;;;;;97.50;56.77;;;16.20;99.90;;;;;;5081792;28;20254;-64
2021/06/15 02:25:47;;;;;;;110.77;62.70;;;16.20;99.90;;;;;;5088455;28;20226;-64
2021/06/15 02:28:18;;;;;;;107.43;63.27;;;16.10;99.90;;;;;;5078751;28;20181;-63
2021/06/15 02:30:47;;;;;;;113.70;64.33;;;16.10;99.90;;;;;;5084803;28;20204;-63
2021/06/15 02:33:19;;;;;;;120.20;67.27;;;16.10;99.90;;;;;;5086257;28;20188;-64
2021/06/15 02:35:53;;;;;;;115.23;65.10;;;16.10;99.90;;;;;;5062019;28;20253;-64
2021/06/15 02:38:26;;;;;;;113.57;66.07;;;16.10;99.90;;;;;;5082092;28;20357;-63
2021/06/15 02:40:58;;;;;;;113.27;65.10;;;16.10;99.90;;;;;;5066358;28;20187;-63
2021/06/15 02:43:28;;;;;;;114.17;67.83;;;16.10;99.90;;;;;;5083331;28;20199;-63
2021/06/15 02:45:59;;;;;;;111.60;63.50;;;16.10;99.90;;;;;;5065812;28;20208;-64
2021/06/15 02:48:33;;;;;;;117.57;66.10;;;16.10;99.90;;;;;;5086973;28;20222;-63
2021/06/15 02:51:04;;;;;;;108.50;60.07;;;16.00;99.90;;;;;;5083454;28;20184;-64
2021/06/15 02:53:37;;;;;;;114.97;64.33;;;16.00;99.90;;;;;;5082735;28;20206;-63
2021/06/15 02:56:10;;;;;;;113.73;63.37;;;16.00;99.90;;;;;;5084930;28;20211;-63
2021/06/15 02:58:40;;;;;;;115.10;63.50;;;16.00;99.90;;;;;;5085056;28;20216;-63
2021/06/15 03:01:08;;;;;;;110.87;63.10;;;16.00;99.90;;;;;;5066348;28;20180;-63
2021/06/15 03:03:37;;;;;;;105.73;62.57;;;16.00;99.90;;;;;;5084143;28;20184;-63
2021/06/15 03:06:06;;;;;;;109.13;63.80;;;16.00;99.90;;;;;;5059582;28;20231;-63
2021/06/15 03:08:36;;;;;;;120.50;66.90;;;16.00;99.90;;;;;;5085050;28;20255;-63
2021/06/15 03:11:04;;;;;;;108.90;63.70;;;16.00;99.90;;;;;;5065210;28;20176;-64
2021/06/15 03:13:42;;;;;;;106.37;62.33;;;16.00;99.90;;;;;;5066501;28;20196;-64
2021/06/15 03:16:15;;;;;;;111.40;63.07;;;16.00;99.90;;;;;;5085347;28;20261;-63
2021/06/15 03:18:52;;;;;;;105.37;60.17;;;15.90;99.90;;;;;;5082923;28;20211;-63
2021/06/15 03:21:23;;;;;;;122.87;67.30;;;15.90;99.90;;;;;;5082892;28;20395;-64
2021/06/15 03:23:57;;;;;;;115.47;65.80;;;15.90;99.90;;;;;;5084524;28;20188;-64
2021/06/15 03:26:39;;;;;;;115.50;66.37;;;15.90;99.90;;;;;;5085855;28;20211;-63
2021/06/15 03:29:12;;;;;;;111.93;63.37;;;15.90;99.90;;;;;;5084648;28;20180;-64
2021/06/15 03:31:43;;;;;;;111.53;61.23;;;15.90;99.90;;;;;;5065485;28;20184;-64
2021/06/15 03:34:15;;;;;;;110.33;61.83;;;15.90;99.90;;;;;;5085024;28;20744;-64
2021/06/15 03:36:44;;;;;;;112.97;62.73;;;15.90;99.90;;;;;;5085900;28;20208;-63
2021/06/15 03:39:16;;;;;;;109.27;64.40;;;15.90;99.90;;;;;;5082588;28;20195;-64
2021/06/15 03:41:45;;;;;;;106.03;61.43;;;15.90;99.90;;;;;;5085316;28;20188;-64
2021/06/15 03:44:15;;;;;;;106.27;60.93;;;15.90;99.90;;;;;;5085748;28;20199;-64
2021/06/15 03:46:45;;;;;;;109.50;62.40;;;15.90;99.90;;;;;;5082309;28;20211;-64
2021/06/15 03:49:16;;;;;;;112.43;62.93;;;15.90;99.90;;;;;;5084952;28;20215;-63
2021/06/15 03:51:49;;;;;;;111.87;64.27;;;15.90;99.90;;;;;;5085209;28;20208;-63
2021/06/15 03:54:19;;;;;;;102.50;60.90;;;16.00;99.90;;;;;;5079046;28;20250;-64
2021/06/15 03:56:50;;;;;;;99.93;59.33;;;16.00;99.90;;;;;;5078212;28;20494;-63
2021/06/15 03:59:26;;;;;;;115.83;63.53;;;16.10;99.90;;;;;;5080665;28;20184;-63
2021/06/15 04:01:56;;;;;;;103.10;60.87;;;16.10;99.90;;;;;;5080952;28;20187;-64
2021/06/15 04:04:26;;;;;;;100.87;60.73;;;16.10;99.90;;;;;;5085013;28;20323;-64
2021/06/15 04:06:56;;;;;;;98.73;58.57;;;16.10;99.90;;;;;;5076983;28;20180;-64
2021/06/15 04:09:28;;;;;;;104.93;59.17;;;16.10;99.90;;;;;;5084316;28;20208;-63
2021/06/15 04:11:59;;;;;;;101.37;59.77;;;16.10;99.90;;;;;;5081452;28;20316;-63
2021/06/15 04:14:30;;;;;;;104.47;62.00;;;16.10;99.90;;;;;;5081175;28;20177;-64
2021/06/15 04:17:02;;;;;;;117.87;60.67;;;16.10;99.90;;;;;;5079709;28;20472;-64
2021/06/15 04:19:33;;;;;;;111.37;63.67;;;16.20;99.90;;;;;;5083228;28;20234;-64
2021/06/15 04:22:04;;;;;;;109.27;62.03;;;16.30;99.90;;;;;;5060028;28;20182;-64
2021/06/15 04:24:35;;;;;;;107.67;60.13;;;16.30;99.90;;;;;;5077355;28;20246;-64
2021/06/15 04:27:05;;;;;;;94.90;54.47;;;16.30;99.90;;;;;;5078896;28;20254;-63
2021/06/15 04:29:35;;;;;;;102.27;56.20;;;16.40;99.90;;;;;;5083187;28;20199;-64
2021/06/15 04:32:07;;;;;;;93.77;53.20;;;16.50;99.90;;;;;;5061448;28;20200;-64
2021/06/15 04:34:41;;;;;;;87.07;52.37;;;16.50;99.90;;;;;;5084464;28;20286;-64
2021/06/15 04:37:11;;;;;;;87.37;49.73;;;16.60;99.90;;;;;;5079774;28;20448;-63
2021/06/15 04:39:47;;;;;;;74.60;47.13;;;16.60;99.90;;;;;;5084241;28;20250;-64
2021/06/15 04:42:24;;;;;;;77.83;44.13;;;16.60;99.90;;;;;;5080880;28;20192;-64
2021/06/15 04:44:56;;;;;;;68.57;41.87;;;16.70;99.90;;;;;;5081648;28;20171;-64
2021/06/15 04:47:29;;;;;;;73.53;43.17;;;16.70;99.90;;;;;;5080973;28;20185;-64
2021/06/15 04:50:02;;;;;;;66.27;40.50;;;16.80;99.90;;;;;;5084730;28;20187;-64
2021/06/15 04:52:32;;;;;;;69.43;40.90;;;16.80;99.90;;;;;;5082914;28;20192;-64
2021/06/15 04:55:02;;;;;;;62.97;37.37;;;16.90;99.90;;;;;;5084632;28;20257;-64
2021/06/15 04:57:34;;;;;;;55.83;35.93;;;17.00;99.90;;;;;;5080233;28;20320;-64
2021/06/15 05:00:06;;;;;;;56.73;35.60;;;17.00;99.90;;;;;;5082694;28;20177;-64
2021/06/15 05:02:38;;;;;;;55.17;34.40;;;17.10;99.90;;;;;;5083151;28;20235;-64
2021/06/15 05:05:09;;;;;;;53.10;33.50;;;17.20;99.90;;;;;;5065295;28;20226;-64
2021/06/15 05:07:40;;;;;;;55.10;32.63;;;17.20;99.90;;;;;;5083676;28;20203;-64
2021/06/15 05:10:09;;;;;;;47.47;32.13;;;17.30;99.90;;;;;;5082510;28;20294;-64
2021/06/15 05:12:40;;;;;;;44.30;28.77;;;17.30;99.90;;;;;;5082347;28;20360;-64
2021/06/15 05:15:12;;;;;;;47.00;29.30;;;17.40;99.90;;;;;;5082926;28;20328;-64
2021/06/15 05:17:46;;;;;;;40.87;27.47;;;17.50;99.90;;;;;;5075804;28;20316;-64
2021/06/15 05:20:16;;;;;;;40.13;26.70;;;17.50;99.90;;;;;;5080933;28;20197;-64
2021/06/15 05:22:50;;;;;;;37.33;25.00;;;17.60;99.90;;;;;;5079135;28;20197;-64
2021/06/15 05:25:20;;;;;;;35.43;24.83;;;17.70;99.90;;;;;;5070978;28;20185;-64
2021/06/15 05:27:51;;;;;;;40.07;23.77;;;17.80;99.90;;;;;;5084150;28;20197;-64
2021/06/15 05:30:22;;;;;;;35.87;23.50;;;17.90;99.90;;;;;;5076701;28;20300;-64
2021/06/15 05:32:50;;;;;;;34.50;21.63;;;18.00;99.90;;;;;;5084048;28;20206;-65
2021/06/15 05:35:20;;;;;;;31.17;20.37;;;18.20;99.90;;;;;;5078832;28;20176;-64
2021/06/15 05:37:49;;;;;;;31.50;20.03;;;18.20;99.90;;;;;;5080016;28;20312;-65
2021/06/15 05:40:19;;;;;;;29.60;18.80;;;18.30;99.90;;;;;;5082385;28;20336;-64
2021/06/15 05:42:47;;;;;;;26.93;17.60;;;18.40;99.90;;;;;;5083359;28;20190;-64
2021/06/15 05:45:17;;;;;;;27.17;17.10;;;18.50;99.90;;;;;;5083403;28;20411;-64
2021/06/15 05:47:47;;;;;;;26.13;17.17;;;18.60;99.90;;;;;;5082247;28;20190;-64
2021/06/15 05:50:16;;;;;;;24.57;16.50;;;18.70;99.90;;;;;;5079369;28;20195;-64
2021/06/15 05:52:45;;;;;;;23.33;15.97;;;18.80;99.90;;;;;;5075675;28;20240;-65
2021/06/15 05:55:14;;;;;;;24.43;15.90;;;18.90;99.90;;;;;;5049042;28;20180;-64
2021/06/15 05:57:43;;;;;;;25.87;16.07;;;18.90;99.90;;;;;;5077678;28;20219;-65
2021/06/15 06:00:16;;;;;;;26.50;15.00;;;19.00;99.90;;;;;;5077201;28;20246;-64
2021/06/15 06:02:46;;;;;;;21.73;15.53;;;19.00;99.90;;;;;;5082174;28;20271;-64
2021/06/15 06:08:10;;;;;;;27.97;14.60;;;19.10;99.90;;;;;;5071544;28;20322;-64
2021/06/15 06:10:40;;;;;;;20.97;14.90;;;19.30;99.90;;;;;;5059852;28;20361;-65
2021/06/15 06:13:12;;;;;;;21.60;15.07;;;19.30;99.90;;;;;;5082510;28;20200;-64
2021/06/15 06:15:42;;;;;;;18.33;13.97;;;19.30;99.90;;;;;;5084628;28;20184;-64
2021/06/15 06:18:14;;;;;;;18.47;13.03;;;19.30;99.90;;;;;;5077057;28;20215;-64
2021/06/15 06:20:43;;;;;;;19.73;12.13;;;19.40;99.90;;;;;;5066984;28;20219;-65
2021/06/15 06:23:11;;;;;;;16.17;12.60;;;19.50;99.90;;;;;;5079609;28;20392;-64
2021/06/15 06:25:40;;;;;;;16.40;12.47;;;19.60;99.90;;;;;;5084332;28;20191;-65
2021/06/15 06:28:08;;;;;;;16.50;12.47;;;19.70;99.90;;;;;;5079326;28;20184;-64
2021/06/15 06:30:37;;;;;;;18.13;12.23;;;19.70;99.90;;;;;;5080993;28;20188;-65
2021/06/15 06:33:06;;;;;;;13.70;11.53;;;19.80;99.90;;;;;;5078966;28;20211;-64
2021/06/15 06:35:35;;;;;;;14.40;11.30;;;20.00;99.90;;;;;;5066424;28;20191;-64
2021/06/15 06:38:04;;;;;;;17.13;11.47;;;20.10;99.90;;;;;;5072289;28;20205;-64
2021/06/15 06:40:33;;;;;;;16.67;11.33;;;20.20;99.90;;;;;;5075716;28;20177;-64
2021/06/15 06:43:09;;;;;;;23.83;11.77;;;20.40;99.90;;;;;;5076970;28;20292;-64
2021/06/15 06:45:38;;;;;;;18.03;10.87;;;20.40;99.90;;;;;;5078644;28;20179;-65
2021/06/15 06:48:08;;;;;;;17.50;10.27;;;20.40;99.90;;;;;;5075276;28;20222;-64
2021/06/15 06:50:39;;;;;;;13.17;10.63;;;20.60;99.90;;;;;;5083323;28;20196;-64
2021/06/15 06:53:08;;;;;;;13.10;10.43;;;20.70;99.90;;;;;;5081419;28;20199;-63
2021/06/15 06:55:36;;;;;;;14.60;10.40;;;20.80;99.90;;;;;;5083781;28;20192;-65
2021/06/15 06:58:06;;;;;;;15.60;10.33;;;20.80;99.90;;;;;;5080235;28;20483;-64
2021/06/15 07:00:41;;;;;;;15.33;9.53;;;20.90;99.90;;;;;;5077247;28;20172;-63
2021/06/15 07:03:09;;;;;;;11.80;8.43;;;21.00;99.90;;;;;;5080848;28;20200;-64
2021/06/15 07:05:41;;;;;;;12.30;8.90;;;20.90;99.90;;;;;;5063898;28;20192;-65
2021/06/15 07:08:10;;;;;;;10.97;8.20;;;20.90;99.90;;;;;;5082526;28;20294;-64
2021/06/15 07:10:38;;;;;;;11.43;8.70;;;20.90;99.90;;;;;;5084470;28;20180;-64
2021/06/15 07:13:07;;;;;;;11.70;8.20;;;21.10;99.90;;;;;;5081248;28;20211;-65
2021/06/15 07:15:35;;;;;;;12.40;7.83;;;21.20;99.90;;;;;;5083640;28;20248;-64
2021/06/15 07:18:04;;;;;;;11.07;7.07;;;21.30;99.90;;;;;;5083063;28;20184;-65
2021/06/15 07:20:33;;;;;;;12.70;7.10;;;21.40;99.90;;;;;;5072769;28;20419;-64
2021/06/15 07:23:02;;;;;;;7.90;6.47;;;21.40;99.90;;;;;;5079941;28;20185;-65
2021/06/15 07:25:32;;;;;;;9.27;6.80;;;21.50;99.90;;;;;;5080396;28;20188;-64
2021/06/15 07:28:02;;;;;;;8.07;6.17;;;21.60;99.90;;;;;;5077582;28;20193;-64
2021/06/15 07:30:31;;;;;;;8.97;7.00;;;21.80;99.90;;;;;;5079210;28;20194;-64
2021/06/15 07:33:00;;;;;;;8.10;5.73;;;21.90;99.90;;;;;;5081686;28;20199;-64
2021/06/15 07:35:32;;;;;;;6.97;6.10;;;22.00;99.90;;;;;;5085323;28;20211;-64
2021/06/15 07:38:02;;;;;;;8.57;6.00;;;22.30;99.90;;;;;;5085349;28;20192;-65
2021/06/15 07:40:30;;;;;;;10.77;5.87;;;22.30;99.90;;;;;;5084918;28;20388;-64
2021/06/15 07:42:59;;;;;;;6.97;4.93;;;22.30;99.90;;;;;;5075098;28;20381;-64
2021/06/15 07:45:31;;;;;;;6.57;4.93;;;22.10;99.90;;;;;;5075987;28;20283;-64
2021/06/15 07:47:59;;;;;;;5.40;4.90;;;22.10;99.90;;;;;;5080118;28;20208;-64
2021/06/15 07:50:27;;;;;;;10.20;4.77;;;22.00;99.90;;;;;;5083606;28;20555;-65
2021/06/15 07:52:56;;;;;;;5.53;4.90;;;21.90;99.90;;;;;;5065367;28;20391;-64
2021/06/15 07:55:26;;;;;;;5.77;4.67;;;21.80;99.90;;;;;;5065755;28;20210;-64
2021/06/15 07:57:54;;;;;;;5.37;4.47;;;21.90;99.90;;;;;;5081027;28;20227;-65
2021/06/15 08:00:23;;;;;;;5.87;4.90;;;22.00;99.90;;;;;;5082180;28;20238;-65
2021/06/15 08:02:52;;;;;;;5.37;4.83;;;22.40;99.90;;;;;;5073713;28;20211;-65
2021/06/15 08:05:20;;;;;;;5.30;4.80;;;22.50;99.90;;;;;;5076199;28;20226;-64
2021/06/15 08:07:51;;;;;;;9.27;5.07;;;22.60;99.90;;;;;;5077031;28;20243;-64
2021/06/15 08:10:21;;;;;;;5.83;4.93;;;22.70;99.90;;;;;;5079774;28;20192;-64
2021/06/15 08:12:51;;;;;;;6.17;5.30;;;22.70;99.90;;;;;;5078187;28;20369;-64
2021/06/15 08:15:19;;;;;;;6.57;4.93;;;22.80;99.90;;;;;;5076182;28;20180;-65
2021/06/15 08:17:50;;;;;;;4.70;4.33;;;22.80;99.90;;;;;;5079845;28;20230;-65
2021/06/15 08:20:19;;;;;;;5.00;4.60;;;22.80;99.90;;;;;;5078137;28;20278;-64
2021/06/15 08:22:50;;;;;;;4.80;3.93;;;22.90;99.90;;;;;;5077146;28;20231;-64
2021/06/15 08:25:19;;;;;;;11.67;4.40;;;23.10;99.90;;;;;;5061936;28;20181;-64
2021/06/15 08:27:48;;;;;;;4.53;4.13;;;23.10;99.90;;;;;;5085547;28;20415;-64
2021/06/15 08:30:19;;;;;;;4.70;4.17;;;23.10;99.90;;;;;;5083338;28;20231;-64
2021/06/15 08:32:47;;;;;;;4.67;4.27;;;23.10;99.90;;;;;;5083648;28;20247;-65
2021/06/15 08:35:16;;;;;;;6.13;4.40;;;23.20;99.90;;;;;;5081940;28;20188;-64
2021/06/15 08:37:45;;;;;;;4.67;3.77;;;23.30;99.90;;;;;;5078621;28;20223;-65
2021/06/15 08:40:14;;;;;;;9.27;3.77;;;23.30;99.90;;;;;;5080898;28;20194;-64
2021/06/15 08:42:45;;;;;;;6.03;4.10;;;23.40;99.90;;;;;;5079262;28;20432;-64
2021/06/15 08:45:15;;;;;;;6.07;3.70;;;23.60;99.90;;;;;;5064967;28;20214;-64
2021/06/15 08:47:48;;;;;;;3.73;3.53;;;23.70;99.90;;;;;;5079824;28;20320;-65
2021/06/15 08:50:18;;;;;;;6.17;3.53;;;23.80;99.90;;;;;;5070907;28;20182;-65
2021/06/15 08:52:48;;;;;;;8.93;3.60;;;23.80;99.90;;;;;;5082091;28;20251;-65
2021/06/15 08:55:18;;;;;;;4.40;3.53;;;23.80;99.90;;;;;;5082091;28;20190;-65
2021/06/15 08:57:55;;;;;;;5.07;3.50;;;23.80;99.90;;;;;;5085768;28;20226;-65
2021/06/15 09:00:27;;;;;;;4.10;3.20;;;23.80;99.90;;;;;;5063614;28;20411;-65
2021/06/15 09:02:56;;;;;;;4.30;2.90;;;23.80;99.90;;;;;;5084162;28;20191;-65
2021/06/15 09:05:25;;;;;;;2.40;2.30;;;23.90;99.90;;;;;;5072874;28;20319;-65
2021/06/15 09:08:04;;;;;;;5.67;2.70;;;24.00;99.90;;;;;;5083198;28;20182;-65
2021/06/15 09:10:35;;;;;;;5.23;2.70;;;24.00;99.90;;;;;;5078814;28;20189;-64
2021/06/15 09:13:04;;;;;;;2.57;2.30;;;24.20;99.90;;;;;;5084950;28;20216;-66
2021/06/15 09:15:33;;;;;;;5.50;2.20;;;24.20;99.90;;;;;;5076869;28;20189;-65
2021/06/15 09:18:04;;;;;;;3.37;2.00;;;24.30;99.90;;;;;;5081713;28;20186;-65
2021/06/15 09:20:33;;;;;;;3.87;1.93;;;24.20;99.90;;;;;;5081625;28;20260;-64
2021/06/15 09:23:06;;;;;;;2.10;1.90;;;24.30;99.90;;;;;;5075857;28;20364;-64
2021/06/15 09:25:36;;;;;;;2.13;1.80;;;24.20;99.90;;;;;;5084043;28;20193;-65
2021/06/15 09:28:18;;;;;;;1.83;1.73;;;24.40;99.90;;;;;;5083474;28;20189;-66
2021/06/15 09:30:57;;;;;;;2.83;1.90;;;24.50;99.90;;;;;;5077453;28;20191;-64
2021/06/15 09:33:43;;;;;;;4.23;2.20;;;24.50;99.90;;;;;;5076442;28;20189;-64
2021/06/15 09:36:27;;;;;;;3.23;2.00;;;24.60;99.90;;;;;;5085082;28;20207;-65
2021/06/15 09:38:57;;;;;;;2.10;1.90;;;24.70;99.90;;;;;;5079110;28;20192;-64
2021/06/15 09:41:36;;;;;;;2.30;2.10;;;24.70;99.90;;;;;;5080923;28;20290;-65
2021/06/15 09:44:15;;;;;;;4.30;2.03;;;24.90;99.90;;;;;;5082436;28;20260;-64
2021/06/15 09:46:46;;;;;;;2.83;1.80;;;25.10;99.90;;;;;;5082331;28;20200;-65
2021/06/15 09:49:27;;;;;;;1.83;1.70;;;25.40;99.90;;;;;;5077299;28;20247;-64
2021/06/15 09:52:14;;;;;;;1.87;1.77;;;25.30;99.90;;;;;;5075851;28;20381;-64
2021/06/15 09:54:43;;;;;;;3.10;1.90;;;25.20;99.90;;;;;;5077501;28;20180;-64
2021/06/15 09:57:19;;;;;;;2.07;1.97;;;25.10;99.90;;;;;;5080567;28;20193;-65
2021/06/15 10:00:11;;;;;;;2.27;1.83;;;25.00;99.90;;;;;;5075598;28;20215;-65
2021/06/15 10:02:51;;;;;;;1.73;1.70;;;25.10;99.90;;;;;;5080936;28;20190;-65
2021/06/15 10:05:24;;;;;;;1.73;1.67;;;25.00;99.90;;;;;;5074620;28;20234;-64
2021/06/15 10:07:53;;;;;;;3.40;2.00;;;25.30;99.90;;;;;;5078364;28;20196;-64
2021/06/15 10:10:24;;;;;;;2.47;2.10;;;25.30;99.90;;;;;;5081272;28;20257;-64
2021/06/15 10:12:54;;;;;;;6.00;1.90;;;25.20;99.90;;;;;;5077605;28;20301;-65
2021/06/15 10:15:23;;;;;;;2.67;1.80;;;25.20;99.90;;;;;;5076030;28;20203;-65
2021/06/15 10:17:52;;;;;;;1.70;1.70;;;25.20;99.90;;;;;;5083385;28;20326;-64
2021/06/15 10:20:24;;;;;;;2.17;2.00;;;25.30;99.90;;;;;;5062269;28;20224;-66
2021/06/15 10:22:53;;;;;;;2.20;2.00;;;25.30;99.90;;;;;;5087444;28;20183;-65
2021/06/15 10:25:24;;;;;;;2.20;2.00;;;25.40;99.90;;;;;;5080338;28;20204;-65
2021/06/15 10:27:55;;;;;;;2.33;2.17;;;25.40;99.90;;;;;;5081481;28;20284;-65
2021/06/15 10:30:30;;;;;;;2.90;2.20;;;25.40;99.90;;;;;;5077709;28;20198;-65
2021/06/15 10:33:02;;;;;;;3.37;2.23;;;25.50;99.90;;;;;;5077115;28;20182;-65
2021/06/15 10:35:38;;;;;;;3.10;2.00;;;25.70;99.90;;;;;;5076222;28;20189;-64
2021/06/15 10:38:07;;;;;;;4.50;2.10;;;25.80;99.90;;;;;;5083059;28;20204;-65
2021/06/15 10:40:45;;;;;;;2.27;2.17;;;25.70;99.90;;;;;;5065302;28;20444;-65
2021/06/15 10:43:45;;;;;;;3.57;1.97;;;25.80;99.90;;;;;;5084472;28;20379;-65
2021/06/15 10:46:38;;;;;;;2.00;1.90;;;26.10;99.90;;;;;;5082178;28;20238;-65
2021/06/15 10:49:09;;;;;;;2.40;2.30;;;26.40;99.90;;;;;;5081285;28;20285;-65
2021/06/15 10:51:51;;;;;;;3.03;1.80;;;26.50;99.90;;;;;;5079527;28;20200;-65
2021/06/15 10:54:31;;;;;;;2.50;2.30;;;26.70;99.90;;;;;;5082968;28;20223;-65
2021/06/15 10:57:24;;;;;;;2.60;2.40;;;26.60;99.90;;;;;;5084476;28;20180;-65
2021/06/15 11:00:08;;;;;;;2.50;2.40;;;26.60;99.90;;;;;;5082693;28;20181;-65
2021/06/15 11:02:37;;;;;;;3.93;2.63;;;26.60;99.90;;;;;;5084174;28;20216;-65
2021/06/15 11:05:38;;;;;;;4.30;2.77;;;26.40;99.90;;;;;;5084922;28;20420;-65
2021/06/15 11:08:20;;;;;;;5.63;2.27;;;26.30;99.90;;;;;;5086056;28;20180;-65
2021/06/15 11:10:53;;;;;;;3.07;2.37;;;26.20;99.90;;;;;;5079269;28;20241;-64
2021/06/15 11:13:41;;;;;;;2.80;2.30;;;26.20;99.90;;;;;;5080963;28;20211;-65
2021/06/15 11:16:21;;;;;;;2.50;2.37;;;26.40;99.90;;;;;;5082688;28;20207;-63
2021/06/15 11:19:23;;;;;;;2.37;2.27;;;26.60;99.90;;;;;;5081245;28;20279;-66
2021/06/15 11:21:54;;;;;;;3.20;2.97;;;26.60;99.90;;;;;;5076912;28;20249;-64
2021/06/15 11:24:25;;;;;;;4.03;2.63;;;26.80;99.90;;;;;;5079219;28;20378;-64
2021/06/15 11:26:56;;;;;;;3.47;3.10;;;26.60;99.90;;;;;;5083280;28;20180;-64
2021/06/15 11:29:30;;;;;;;2.43;2.23;;;26.20;99.90;;;;;;5084482;28;20183;-64
2021/06/15 11:32:26;;;;;;;2.83;2.60;;;26.30;99.90;;;;;;5078423;28;20245;-64
2021/06/15 11:35:17;;;;;;;3.63;3.10;;;26.40;99.90;;;;;;5036278;28;20216;-64
2021/06/15 11:37:48;;;;;;;4.47;2.47;;;26.40;99.90;;;;;;5073022;28;20202;-65
2021/06/15 11:40:27;;;;;;;2.20;2.10;;;26.20;99.90;;;;;;5082453;28;20187;-63
2021/06/15 11:42:57;;;;;;;2.73;2.60;;;26.20;99.90;;;;;;5080912;28;20290;-64
2021/06/15 11:45:37;;;;;;;7.47;2.83;;;26.40;99.90;;;;;;5079068;28;20253;-66
2021/06/15 11:48:21;;;;;;;2.70;2.33;;;26.60;99.90;;;;;;5081369;28;20180;-65
2021/06/15 11:50:51;;;;;;;2.23;2.10;;;26.60;99.90;;;;;;5077425;28;20256;-66
2021/06/15 11:53:21;;;;;;;4.20;2.60;;;26.60;99.90;;;;;;5080749;28;20196;-64
2021/06/15 11:55:52;;;;;;;6.00;2.63;;;26.50;99.90;;;;;;5076497;28;20192;-65
2021/06/15 11:58:25;;;;;;;4.37;2.40;;;26.70;99.90;;;;;;5082702;28;20278;-64
2021/06/15 12:00:55;;;;;;;3.13;2.53;;;26.80;99.90;;;;;;5078294;28;20219;-65
2021/06/15 12:03:28;;;;;;;2.80;2.60;;;26.80;99.90;;;;;;5078438;28;20227;-64
2021/06/15 12:05:59;;;;;;;2.83;2.63;;;26.70;99.90;;;;;;5079806;28;20195;-65
2021/06/15 12:08:30;;;;;;;2.60;2.40;;;27.10;99.90;;;;;;5084247;28;20207;-65
2021/06/15 12:11:01;;;;;;;3.30;3.03;;;26.90;99.90;;;;;;5080383;28;20209;-65
2021/06/15 12:13:32;;;;;;;3.43;2.97;;;27.10;99.90;;;;;;5075338;28;20199;-64
2021/06/15 12:16:02;;;;;;;7.50;2.87;;;27.30;99.90;;;;;;5079807;28;20195;-64
2021/06/15 12:18:43;;;;;;;4.80;3.20;;;27.60;99.90;;;;;;5086503;28;20206;-64
2021/06/15 12:21:16;;;;;;;5.70;3.10;;;27.60;99.90;;;;;;5078996;28;20286;-64
2021/06/15 12:23:47;;;;;;;5.83;2.87;;;27.30;99.90;;;;;;5073806;28;20177;-65
2021/06/15 12:26:23;;;;;;;3.50;3.20;;;27.10;99.90;;;;;;5075630;28;20225;-65
2021/06/15 12:28:54;;;;;;;3.50;3.10;;;27.10;99.90;;;;;;5076521;28;20180;-64
2021/06/15 12:31:25;;;;;;;3.93;3.43;;;27.00;99.90;;;;;;5083287;28;20178;-65
2021/06/15 12:33:55;;;;;;;4.20;3.10;;;27.20;99.90;;;;;;5081144;28;20194;-65
2021/06/15 12:36:26;;;;;;;3.73;3.13;;;27.50;99.90;;;;;;5080829;28;20428;-64
2021/06/15 12:39:07;;;;;;;4.60;3.17;;;27.40;99.90;;;;;;5082134;28;20381;-64
2021/06/15 12:41:38;;;;;;;3.33;3.03;;;27.30;99.90;;;;;;5077135;28;20229;-64
2021/06/15 12:44:07;;;;;;;3.53;2.87;;;27.30;99.90;;;;;;5071021;28;20187;-65
2021/06/15 12:46:37;;;;;;;3.17;2.90;;;27.10;99.90;;;;;;5076749;28;20188;-65
2021/06/15 12:49:08;;;;;;;7.10;3.57;;;27.10;99.90;;;;;;5084327;28;20294;-65
2021/06/15 12:51:45;;;;;;;3.17;3.00;;;27.10;99.90;;;;;;5076617;28;20189;-65
2021/06/15 12:54:18;;;;;;;4.20;3.90;;;27.10;99.90;;;;;;5065041;28;20180;-64
2021/06/15 12:57:01;;;;;;;3.70;3.33;;;27.30;99.90;;;;;;5080852;28;20230;-64
2021/06/15 12:59:30;;;;;;;4.70;3.10;;;27.40;99.90;;;;;;5061265;28;20176;-64
2021/06/15 13:01:59;;;;;;;3.80;3.50;;;27.50;99.90;;;;;;5081170;28;20204;-65